Time;durP1;ratioP1;P1;durP2;ratioP2;P2;SDS_P1;SDS_P2;PMS_P1;PMS_P2;Temp;Humidity;BMP_temperature;BMP_pressure;BME280_temperature;BME280_humidity;BME280_pressure;Samples;Min_cycle;Max_cycle;Signal;HPM_P1;HPM_P2
2023/04/15 00:01:58;;;;;;;12.18;4.50;;;6.60;99.90;;;;;;5031908;28;20033;-59
2023/04/15 00:04:24;;;;;;;6.00;4.20;;;6.80;99.90;;;;;;5032280;28;20156;-59
2023/04/15 00:06:53;;;;;;;9.98;4.80;;;6.60;99.90;;;;;;5032416;28;20047;-55
2023/04/15 00:09:19;;;;;;;11.15;5.28;;;6.50;99.90;;;;;;5029663;28;20515;-55
2023/04/15 00:11:45;;;;;;;7.80;4.78;;;6.60;99.90;;;;;;5035534;28;20036;-55
2023/04/15 00:14:12;;;;;;;13.48;6.10;;;6.40;99.90;;;;;;5037158;28;20041;-55
2023/04/15 00:16:37;;;;;;;13.63;7.97;;;6.50;99.90;;;;;;5034929;28;20025;-55
2023/04/15 00:19:03;;;;;;;15.02;8.35;;;6.50;99.90;;;;;;5032404;28;20135;-55
2023/04/15 00:21:29;;;;;;;12.77;7.43;;;6.40;99.90;;;;;;5031538;28;20037;-55
2023/04/15 00:23:55;;;;;;;14.48;8.70;;;6.40;99.90;;;;;;5032427;28;20048;-55
2023/04/15 00:26:21;;;;;;;16.42;7.75;;;6.30;99.90;;;;;;5031445;28;20060;-55
2023/04/15 00:28:46;;;;;;;15.00;9.57;;;6.20;99.90;;;;;;5033071;28;20552;-55
2023/04/15 00:31:12;;;;;;;13.35;7.80;;;6.30;99.90;;;;;;5036474;28;20037;-55
2023/04/15 00:33:37;;;;;;;13.88;8.45;;;6.30;99.90;;;;;;5034086;28;20061;-55
2023/04/15 00:36:05;;;;;;;15.77;8.43;;;6.20;99.90;;;;;;5033311;28;20441;-55
2023/04/15 00:38:30;;;;;;;15.18;7.65;;;6.20;99.90;;;;;;5035213;28;20041;-55
2023/04/15 00:40:56;;;;;;;12.73;7.60;;;6.20;99.90;;;;;;5034301;28;20044;-55
2023/04/15 00:43:21;;;;;;;12.82;7.38;;;6.20;99.90;;;;;;5032724;28;20047;-55
2023/04/15 00:45:47;;;;;;;10.45;7.00;;;6.20;99.90;;;;;;5033864;28;20604;-55
2023/04/15 00:48:13;;;;;;;11.70;6.93;;;6.10;99.90;;;;;;5030471;28;20056;-55
2023/04/15 00:50:38;;;;;;;12.43;6.72;;;6.20;99.90;;;;;;5031899;28;20078;-55
2023/04/15 00:53:04;;;;;;;13.10;7.72;;;6.20;99.90;;;;;;5031707;28;20037;-55
2023/04/15 00:55:30;;;;;;;12.88;7.30;;;6.10;99.90;;;;;;5047554;28;20331;-55
2023/04/15 00:57:56;;;;;;;12.80;7.60;;;6.10;99.90;;;;;;5033086;28;20037;-55
2023/04/15 01:00:22;;;;;;;14.23;7.03;;;6.00;99.90;;;;;;5036696;28;20049;-55
2023/04/15 01:02:49;;;;;;;11.60;7.30;;;6.10;99.90;;;;;;5035752;28;20033;-55
2023/04/15 01:05:17;;;;;;;12.38;7.53;;;6.10;99.90;;;;;;5028718;28;20033;-55
2023/04/15 01:07:43;;;;;;;11.32;6.97;;;6.00;99.90;;;;;;5032408;28;20110;-55
2023/04/15 01:10:08;;;;;;;15.38;7.68;;;6.00;99.90;;;;;;5032558;28;20443;-55
2023/04/15 01:12:36;;;;;;;11.70;7.63;;;5.90;99.90;;;;;;5032965;28;20098;-55
2023/04/15 01:15:03;;;;;;;14.57;9.20;;;5.90;99.90;;;;;;5029068;28;20040;-55
2023/04/15 01:17:28;;;;;;;13.90;8.02;;;5.90;99.90;;;;;;5030293;28;20129;-55
2023/04/15 01:19:56;;;;;;;11.68;7.53;;;5.90;99.90;;;;;;5032396;28;20086;-55
2023/04/15 01:22:23;;;;;;;14.52;8.20;;;5.80;99.90;;;;;;5031589;28;20047;-55
2023/04/15 01:25:12;;;;;;;14.82;8.95;;;5.80;99.90;;;;;;5030999;28;20037;-55
2023/04/15 01:27:40;;;;;;;12.00;7.88;;;5.80;99.90;;;;;;5031067;28;20116;-55
2023/04/15 01:30:07;;;;;;;11.30;7.30;;;5.80;99.90;;;;;;5031861;28;21269;-55
2023/04/15 01:32:33;;;;;;;14.77;8.48;;;5.70;99.90;;;;;;5034228;28;20095;-55
2023/04/15 01:34:58;;;;;;;11.20;7.57;;;5.80;99.90;;;;;;5034069;28;20120;-55
2023/04/15 01:37:25;;;;;;;18.65;7.78;;;5.80;99.90;;;;;;5031256;28;20041;-55
2023/04/15 01:39:50;;;;;;;11.25;7.55;;;5.70;99.90;;;;;;5033275;28;20517;-55
2023/04/15 01:42:16;;;;;;;18.60;8.82;;;5.70;99.90;;;;;;5034272;28;20311;-55
2023/04/15 01:44:42;;;;;;;15.57;9.18;;;5.80;99.90;;;;;;5031066;28;20242;-55
2023/04/15 01:47:07;;;;;;;19.17;10.10;;;5.90;99.90;;;;;;5031146;28;20400;-55
2023/04/15 01:49:33;;;;;;;13.98;9.10;;;5.60;99.90;;;;;;5030889;28;20443;-55
2023/04/15 01:51:59;;;;;;;16.95;9.60;;;5.80;99.90;;;;;;5032669;28;20041;-55
2023/04/15 01:54:26;;;;;;;14.30;8.85;;;5.70;99.90;;;;;;5032360;28;20075;-55
2023/04/15 01:56:52;;;;;;;14.10;9.38;;;5.70;99.90;;;;;;5032251;28;20051;-55
2023/04/15 01:59:17;;;;;;;14.40;8.80;;;5.50;99.90;;;;;;5033446;28;20041;-55
2023/04/15 02:01:44;;;;;;;15.50;9.35;;;5.60;99.90;;;;;;5032473;28;20057;-55
2023/04/15 02:04:15;;;;;;;15.13;9.10;;;5.50;99.90;;;;;;5034900;28;20033;-55
2023/04/15 02:06:42;;;;;;;15.25;8.82;;;5.50;99.90;;;;;;5034219;28;20371;-55
2023/04/15 02:09:08;;;;;;;16.58;8.98;;;5.50;99.90;;;;;;5030750;28;20083;-55
2023/04/15 02:11:36;;;;;;;15.32;9.77;;;5.50;99.90;;;;;;5030837;28;20063;-55
2023/04/15 02:14:03;;;;;;;15.43;9.20;;;5.60;99.90;;;;;;5034992;28;20214;-55
2023/04/15 02:16:28;;;;;;;18.00;9.32;;;5.60;99.90;;;;;;5037979;28;20262;-55
2023/04/15 02:18:54;;;;;;;16.67;9.68;;;5.50;99.90;;;;;;5035409;28;20083;-55
2023/04/15 02:21:19;;;;;;;15.25;9.52;;;5.40;99.90;;;;;;5031192;28;20216;-55
2023/04/15 02:23:47;;;;;;;17.35;9.40;;;5.50;99.90;;;;;;5038538;28;20163;-55
2023/04/15 02:26:12;;;;;;;17.20;10.07;;;5.50;99.90;;;;;;5035943;28;20095;-55
2023/04/15 02:28:38;;;;;;;14.23;9.40;;;5.40;99.90;;;;;;5034790;28;20424;-55
2023/04/15 02:31:07;;;;;;;17.00;9.40;;;5.40;99.90;;;;;;5049644;28;20119;-55
2023/04/15 02:33:32;;;;;;;20.52;10.50;;;5.30;99.90;;;;;;5035956;28;20480;-55
2023/04/15 02:35:58;;;;;;;16.73;10.82;;;5.70;99.90;;;;;;5036922;28;20139;-55
2023/04/15 02:38:24;;;;;;;18.38;11.90;;;5.60;99.90;;;;;;5036667;28;20037;-55
2023/04/15 02:40:49;;;;;;;19.08;11.68;;;6.00;99.90;;;;;;5035024;28;20051;-55
2023/04/15 02:43:16;;;;;;;17.08;11.98;;;6.10;99.90;;;;;;5034684;28;20782;-55
2023/04/15 02:45:42;;;;;;;16.92;11.85;;;6.20;99.90;;;;;;5033997;28;20534;-55
2023/04/15 02:48:08;;;;;;;14.18;9.45;;;6.40;99.90;;;;;;5034511;28;20124;-55
2023/04/15 02:50:34;;;;;;;14.40;9.95;;;6.20;99.90;;;;;;5035098;28;20093;-55
2023/04/15 02:53:00;;;;;;;18.42;10.43;;;6.00;99.90;;;;;;5033757;28;20492;-55
2023/04/15 02:55:26;;;;;;;17.75;10.70;;;5.80;99.90;;;;;;5033589;28;20048;-55
2023/04/15 02:57:51;;;;;;;16.17;10.52;;;5.60;99.90;;;;;;5032941;28;20182;-55
2023/04/15 03:00:17;;;;;;;16.20;10.52;;;5.80;99.90;;;;;;5032704;28;20041;-55
2023/04/15 03:02:44;;;;;;;15.63;10.88;;;5.50;99.90;;;;;;5034511;28;20120;-55
2023/04/15 03:05:13;;;;;;;15.68;10.98;;;5.50;99.90;;;;;;5033347;28;21191;-55
2023/04/15 03:07:39;;;;;;;18.70;10.90;;;5.50;99.90;;;;;;5034517;28;20454;-55
2023/04/15 03:10:06;;;;;;;19.50;11.52;;;5.30;99.90;;;;;;5034868;28;20136;-55
2023/04/15 03:12:32;;;;;;;16.80;11.00;;;5.40;99.90;;;;;;5037196;28;20041;-55
2023/04/15 03:14:59;;;;;;;18.17;10.52;;;5.30;99.90;;;;;;5033877;28;20056;-55
2023/04/15 03:17:24;;;;;;;15.13;11.35;;;5.40;99.90;;;;;;5033400;28;20041;-55
2023/04/15 03:19:50;;;;;;;19.55;12.25;;;5.20;99.90;;;;;;5035903;28;20056;-55
2023/04/15 03:22:15;;;;;;;19.75;12.27;;;5.50;99.90;;;;;;5033707;28;20808;-55
2023/04/15 03:24:41;;;;;;;17.30;11.43;;;5.60;99.90;;;;;;5031571;28;20044;-55
2023/04/15 03:27:06;;;;;;;18.02;12.35;;;5.60;99.90;;;;;;5033082;28;20044;-55
2023/04/15 03:29:32;;;;;;;18.08;11.93;;;5.60;99.90;;;;;;5033736;28;20124;-55
2023/04/15 03:31:58;;;;;;;20.77;13.82;;;5.50;99.90;;;;;;5038161;28;20043;-55
2023/04/15 03:34:23;;;;;;;21.42;13.60;;;5.50;99.90;;;;;;5033072;28;20045;-55
2023/04/15 03:36:49;;;;;;;21.52;15.05;;;5.90;99.90;;;;;;5032832;28;20125;-55
2023/04/15 03:39:15;;;;;;;17.58;13.60;;;6.00;99.90;;;;;;5033616;28;20386;-55
2023/04/15 03:41:41;;;;;;;19.75;14.43;;;6.00;99.90;;;;;;5032951;28;21078;-55
2023/04/15 03:44:06;;;;;;;22.33;14.23;;;6.10;99.90;;;;;;5030443;28;20047;-55
2023/04/15 03:46:32;;;;;;;19.25;13.93;;;6.20;99.90;;;;;;5034445;28;20223;-55
2023/04/15 03:48:58;;;;;;;20.10;14.13;;;6.50;99.90;;;;;;5031372;28;20037;-56
2023/04/15 03:51:23;;;;;;;17.77;13.57;;;6.40;99.90;;;;;;5032176;28;20033;-55
2023/04/15 03:53:49;;;;;;;21.33;14.20;;;6.30;99.90;;;;;;5033786;28;20646;-55
2023/04/15 03:56:14;;;;;;;24.30;14.23;;;6.30;99.90;;;;;;5033338;28;21424;-55
2023/04/15 03:58:40;;;;;;;24.45;13.70;;;6.30;99.90;;;;;;5032504;28;20041;-55
2023/04/15 04:01:06;;;;;;;22.60;15.57;;;6.20;99.90;;;;;;5032601;28;20757;-56
2023/04/15 04:03:32;;;;;;;25.48;15.40;;;6.30;99.90;;;;;;5032512;28;20201;-55
2023/04/15 04:05:57;;;;;;;21.05;14.10;;;6.30;99.90;;;;;;5032622;28;20047;-55
2023/04/15 04:08:23;;;;;;;20.13;13.77;;;6.30;99.90;;;;;;5032816;28;20044;-55
2023/04/15 04:10:49;;;;;;;20.73;14.85;;;6.30;99.90;;;;;;5038796;28;20029;-55
2023/04/15 04:13:14;;;;;;;21.77;14.40;;;6.30;99.90;;;;;;5039608;28;20029;-55
2023/04/15 04:15:40;;;;;;;21.70;14.82;;;6.30;99.90;;;;;;5032532;28;20535;-55
2023/04/15 04:18:06;;;;;;;21.20;15.05;;;6.30;99.90;;;;;;5032327;28;20395;-55
2023/04/15 04:20:32;;;;;;;23.70;15.23;;;6.30;99.90;;;;;;5032269;28;20793;-55
2023/04/15 04:22:57;;;;;;;21.95;14.07;;;6.30;99.90;;;;;;5031834;28;20064;-55
2023/04/15 04:25:23;;;;;;;22.20;14.63;;;6.30;99.90;;;;;;5031036;28;20067;-55
2023/04/15 04:27:49;;;;;;;18.42;13.52;;;6.20;99.90;;;;;;5034182;28;20048;-55
2023/04/15 04:30:15;;;;;;;20.75;14.07;;;6.30;99.90;;;;;;5033787;28;20037;-56
2023/04/15 04:32:40;;;;;;;24.80;14.00;;;6.40;99.90;;;;;;5033211;28;20407;-55
2023/04/15 04:35:06;;;;;;;17.25;13.25;;;6.20;99.90;;;;;;5031767;28;20044;-55
2023/04/15 04:37:32;;;;;;;18.98;13.30;;;6.30;99.90;;;;;;5032107;28;20033;-55
2023/04/15 04:39:57;;;;;;;21.02;13.50;;;6.40;99.90;;;;;;5034464;28;20025;-55
2023/04/15 04:42:23;;;;;;;17.25;12.90;;;6.50;99.90;;;;;;5031113;28;20297;-55
2023/04/15 04:44:48;;;;;;;21.80;14.25;;;6.50;99.90;;;;;;5033558;28;20051;-55
2023/04/15 04:47:14;;;;;;;23.05;14.23;;;6.50;99.90;;;;;;5032363;28;20140;-55
2023/04/15 04:49:40;;;;;;;17.92;13.70;;;6.50;99.90;;;;;;5032433;28;20045;-55
2023/04/15 04:52:06;;;;;;;20.77;13.52;;;6.60;99.90;;;;;;5032206;28;20072;-55
2023/04/15 04:54:31;;;;;;;18.08;13.38;;;6.60;99.90;;;;;;5032055;28;20128;-55
2023/04/15 04:56:57;;;;;;;23.45;13.73;;;6.50;99.90;;;;;;5032432;28;20408;-55
2023/04/15 04:59:23;;;;;;;20.42;12.70;;;6.40;99.90;;;;;;5031137;28;20033;-55
2023/04/15 05:01:49;;;;;;;23.35;14.23;;;6.50;99.90;;;;;;5034948;28;20033;-55
2023/04/15 05:04:14;;;;;;;20.83;14.07;;;6.50;99.90;;;;;;5031266;28;20041;-55
2023/04/15 05:06:40;;;;;;;19.52;13.32;;;6.50;99.90;;;;;;5033323;28;20479;-55
2023/04/15 05:09:06;;;;;;;22.95;14.60;;;6.60;99.90;;;;;;5032140;28;20975;-55
2023/04/15 05:11:31;;;;;;;20.25;14.63;;;6.70;99.90;;;;;;5036142;28;20112;-55
2023/04/15 05:13:58;;;;;;;20.10;13.80;;;6.70;99.90;;;;;;5030705;28;20045;-55
2023/04/15 05:16:24;;;;;;;25.00;14.52;;;6.60;99.90;;;;;;5030168;28;20045;-55
2023/04/15 05:18:50;;;;;;;22.00;15.13;;;6.80;99.90;;;;;;5033267;28;20155;-55
2023/04/15 05:21:16;;;;;;;22.95;13.82;;;6.60;99.90;;;;;;5032367;28;20055;-55
2023/04/15 05:23:41;;;;;;;25.60;15.00;;;6.60;99.90;;;;;;5031100;28;20041;-55
2023/04/15 05:26:07;;;;;;;24.63;14.52;;;6.60;99.90;;;;;;5031667;28;20436;-55
2023/04/15 05:28:33;;;;;;;20.30;13.95;;;6.60;99.90;;;;;;5030845;28;20040;-55
2023/04/15 05:30:59;;;;;;;19.67;14.20;;;6.60;99.90;;;;;;5030587;28;20037;-57
2023/04/15 05:33:25;;;;;;;19.55;14.43;;;6.70;99.90;;;;;;5034819;28;20033;-57
2023/04/15 05:35:50;;;;;;;21.67;14.15;;;6.70;99.90;;;;;;5032542;28;20489;-57
2023/04/15 05:38:16;;;;;;;19.58;13.98;;;6.80;99.90;;;;;;5033897;28;20457;-57
2023/04/15 05:40:41;;;;;;;21.08;13.95;;;6.70;99.90;;;;;;5035451;28;20036;-55
2023/04/15 05:43:07;;;;;;;20.67;14.18;;;6.70;99.90;;;;;;5035444;28;20036;-56
2023/04/15 05:45:33;;;;;;;20.33;14.57;;;7.00;99.90;;;;;;5035057;28;20603;-55
2023/04/15 05:47:58;;;;;;;19.42;13.40;;;6.90;99.90;;;;;;5034999;28;20128;-55
2023/04/15 05:50:24;;;;;;;22.25;13.57;;;6.90;99.90;;;;;;5035384;28;20354;-55
2023/04/15 05:52:50;;;;;;;20.25;14.57;;;7.00;99.90;;;;;;5035741;28;20025;-55
2023/04/15 05:55:16;;;;;;;20.80;14.00;;;7.00;99.90;;;;;;5034897;28;20692;-55
2023/04/15 05:57:41;;;;;;;20.60;14.77;;;7.00;99.90;;;;;;5049182;28;20367;-55
2023/04/15 06:00:07;;;;;;;24.08;14.25;;;7.10;99.90;;;;;;5033581;28;20029;-54
2023/04/15 06:02:33;;;;;;;22.52;14.25;;;7.10;99.90;;;;;;5040357;28;20025;-55
2023/04/15 06:04:59;;;;;;;20.38;15.00;;;7.10;99.90;;;;;;5035154;28;20405;-55
2023/04/15 06:07:25;;;;;;;20.42;13.60;;;7.20;99.90;;;;;;5035943;28;20048;-55
2023/04/15 06:09:50;;;;;;;22.40;14.35;;;7.30;99.90;;;;;;5035601;28;20398;-55
2023/04/15 06:12:16;;;;;;;21.60;14.02;;;7.40;99.90;;;;;;5040304;28;20443;-55
2023/04/15 06:14:42;;;;;;;19.25;14.27;;;7.40;99.90;;;;;;5037006;28;20033;-55
2023/04/15 06:17:08;;;;;;;22.90;15.10;;;7.50;99.90;;;;;;5036593;28;20067;-55
2023/04/15 06:19:35;;;;;;;21.52;14.25;;;7.40;99.90;;;;;;5035304;28;20504;-55
2023/04/15 06:22:01;;;;;;;18.88;14.15;;;7.60;99.90;;;;;;5035691;28;20044;-55
2023/04/15 06:24:27;;;;;;;23.27;13.55;;;7.60;99.90;;;;;;5032937;28;20453;-53
2023/04/15 06:26:52;;;;;;;20.00;14.85;;;7.50;99.90;;;;;;5032265;28;20032;-53
2023/04/15 06:29:18;;;;;;;22.98;15.13;;;7.70;99.90;;;;;;5034485;28;20526;-52
2023/04/15 06:31:45;;;;;;;19.13;14.52;;;7.70;99.90;;;;;;5037187;28;20618;-55
2023/04/15 06:34:11;;;;;;;20.63;15.18;;;7.70;99.90;;;;;;5041824;28;20459;-55
2023/04/15 06:36:36;;;;;;;22.13;16.17;;;7.80;99.90;;;;;;5035222;28;20033;-55
2023/04/15 06:39:02;;;;;;;21.90;16.02;;;7.80;99.90;;;;;;5034919;28;20166;-55
2023/04/15 06:41:28;;;;;;;22.40;16.52;;;7.90;99.90;;;;;;5035390;28;20037;-55
2023/04/15 06:43:54;;;;;;;25.10;16.55;;;8.00;99.90;;;;;;5035185;28;20087;-54
2023/04/15 06:46:19;;;;;;;24.48;17.23;;;8.00;99.90;;;;;;5032747;28;20052;-55
2023/04/15 06:48:45;;;;;;;25.70;17.85;;;8.00;99.90;;;;;;5032177;28;20147;-54
2023/04/15 06:51:10;;;;;;;22.58;17.70;;;8.10;99.90;;;;;;5025123;28;20140;-55
2023/04/15 06:53:39;;;;;;;24.67;17.45;;;8.30;99.90;;;;;;5030415;28;20118;-55
2023/04/15 06:56:07;;;;;;;22.17;15.45;;;8.30;99.90;;;;;;5033825;28;20119;-55
2023/04/15 06:58:32;;;;;;;22.27;17.13;;;8.30;99.90;;;;;;5034262;28;20096;-55
2023/04/15 07:00:58;;;;;;;23.77;15.98;;;8.40;99.90;;;;;;5037093;28;20529;-55
2023/04/15 07:03:24;;;;;;;22.35;16.65;;;8.40;99.90;;;;;;5037784;28;20044;-55
2023/04/15 07:05:49;;;;;;;23.00;16.90;;;8.50;99.90;;;;;;5037280;28;20567;-55
2023/04/15 07:08:15;;;;;;;22.33;16.40;;;8.70;99.90;;;;;;5039583;28;20040;-55
2023/04/15 07:10:40;;;;;;;21.05;16.50;;;8.80;99.90;;;;;;5043280;28;20064;-55
2023/04/15 07:13:07;;;;;;;22.80;16.60;;;8.90;99.90;;;;;;5040868;28;20488;-55
2023/04/15 07:15:33;;;;;;;21.52;15.82;;;9.10;99.90;;;;;;5041559;28;20099;-55
2023/04/15 07:17:58;;;;;;;21.90;15.98;;;9.30;99.90;;;;;;5037931;28;20045;-55
2023/04/15 07:20:24;;;;;;;19.63;14.55;;;9.20;99.90;;;;;;5037258;28;20037;-55
2023/04/15 07:22:50;;;;;;;22.40;15.13;;;9.30;99.90;;;;;;5040557;28;20049;-55
2023/04/15 07:25:16;;;;;;;20.77;14.68;;;9.40;99.90;;;;;;5055217;28;20432;-55
2023/04/15 07:27:42;;;;;;;18.42;12.60;;;9.50;99.90;;;;;;5037651;28;20087;-55
2023/04/15 07:30:08;;;;;;;16.35;12.88;;;9.60;99.90;;;;;;5039151;28;20488;-55
2023/04/15 07:32:34;;;;;;;18.33;11.73;;;9.50;99.90;;;;;;5039656;28;20059;-55
2023/04/15 07:35:01;;;;;;;15.13;11.50;;;9.60;99.90;;;;;;5041942;28;21177;-55
2023/04/15 07:37:27;;;;;;;13.52;9.88;;;9.70;99.90;;;;;;5037434;28;20731;-55
2023/04/15 07:39:53;;;;;;;12.35;9.10;;;9.90;99.90;;;;;;5039091;28;20032;-55
2023/04/15 07:42:18;;;;;;;13.35;9.02;;;9.90;99.90;;;;;;5040561;28;20029;-55
2023/04/15 07:44:44;;;;;;;10.07;7.75;;;10.10;99.90;;;;;;5037832;28;20029;-55
2023/04/15 07:47:10;;;;;;;10.27;7.57;;;10.20;99.90;;;;;;5038087;28;20822;-55
2023/04/15 07:49:36;;;;;;;11.25;7.78;;;10.30;99.90;;;;;;5036439;28;20399;-55
2023/04/15 07:52:01;;;;;;;8.98;7.20;;;10.40;99.90;;;;;;5036759;28;20047;-54
2023/04/15 07:54:27;;;;;;;10.13;7.13;;;10.50;99.90;;;;;;5038178;28;20116;-55
2023/04/15 07:56:53;;;;;;;8.13;6.50;;;10.70;99.90;;;;;;5039768;28;20385;-55
2023/04/15 07:59:18;;;;;;;7.32;5.30;;;10.60;99.90;;;;;;5037505;28;20456;-55
2023/04/15 08:01:44;;;;;;;8.98;5.38;;;10.70;99.90;;;;;;5040151;28;20033;-55
2023/04/15 08:04:10;;;;;;;5.70;4.47;;;10.80;99.90;;;;;;5037679;28;20037;-55
2023/04/15 08:06:38;;;;;;;9.70;4.63;;;10.70;99.90;;;;;;5037438;28;20057;-55
2023/04/15 08:09:04;;;;;;;7.63;4.57;;;10.70;99.90;;;;;;5038247;28;20413;-55
2023/04/15 08:11:30;;;;;;;5.47;4.68;;;10.70;99.90;;;;;;5037721;28;20033;-55
2023/04/15 08:13:56;;;;;;;6.07;4.10;;;10.80;99.90;;;;;;5041985;28;20037;-55
2023/04/15 08:16:23;;;;;;;6.03;3.97;;;10.70;99.90;;;;;;5037201;28;20114;-56
2023/04/15 08:18:51;;;;;;;5.68;4.10;;;10.80;99.90;;;;;;5040730;28;20075;-55
2023/04/15 08:21:18;;;;;;;5.53;4.15;;;10.90;99.90;;;;;;5037544;28;20232;-55
2023/04/15 08:23:45;;;;;;;4.90;3.80;;;10.70;99.90;;;;;;5041532;28;20033;-55
2023/04/15 08:26:11;;;;;;;7.50;3.80;;;10.70;99.90;;;;;;5037279;28;20220;-55
2023/04/15 08:28:39;;;;;;;6.18;3.60;;;10.90;99.90;;;;;;5035827;28;20083;-56
2023/04/15 08:31:05;;;;;;;5.28;3.78;;;11.00;99.90;;;;;;5042470;28;20764;-55
2023/04/15 08:33:30;;;;;;;6.38;4.03;;;10.90;99.90;;;;;;5036809;28;20044;-56
2023/04/15 08:35:56;;;;;;;6.80;4.65;;;11.20;99.90;;;;;;5036317;28;20496;-53
2023/04/15 08:38:22;;;;;;;6.07;4.28;;;11.30;99.90;;;;;;5035580;28;20055;-54
2023/04/15 08:40:48;;;;;;;6.57;4.53;;;11.40;99.90;;;;;;5037684;28;20055;-54
2023/04/15 08:43:32;;;;;;;6.25;4.55;;;11.30;99.90;;;;;;5036477;28;20502;-55
2023/04/15 08:46:00;;;;;;;7.88;4.50;;;11.60;99.90;;;;;;5036184;28;20029;-54
2023/04/15 08:48:28;;;;;;;5.32;3.92;;;11.80;99.90;;;;;;5033952;28;20178;-55
2023/04/15 08:50:54;;;;;;;6.18;3.60;;;11.90;99.90;;;;;;5027919;28;20043;-55
2023/04/15 08:53:20;;;;;;;4.68;3.22;;;11.50;99.90;;;;;;5031775;28;20041;-55
2023/04/15 08:55:50;;;;;;;7.03;4.00;;;11.40;99.90;;;;;;5027294;28;20505;-54
2023/04/15 08:58:16;;;;;;;4.43;3.20;;;11.40;99.90;;;;;;5030904;28;20037;-55
2023/04/15 09:00:42;;;;;;;6.45;3.42;;;11.60;99.90;;;;;;5038444;28;20037;-55
2023/04/15 09:03:08;;;;;;;5.07;3.83;;;11.60;99.90;;;;;;5035234;28;20037;-55
2023/04/15 09:05:37;;;;;;;4.75;3.35;;;11.60;99.90;;;;;;5038293;28;20033;-55
2023/04/15 09:08:04;;;;;;;5.35;3.85;;;11.60;99.90;;;;;;5037530;28;20033;-55
2023/04/15 09:10:31;;;;;;;5.57;3.80;;;11.60;99.90;;;;;;5035732;28;20029;-55
2023/04/15 09:12:57;;;;;;;5.80;3.67;;;11.90;99.90;;;;;;5035610;28;20032;-55
2023/04/15 09:15:28;;;;;;;5.60;4.20;;;11.90;99.90;;;;;;5029905;28;20432;-55
2023/04/15 09:17:55;;;;;;;6.40;4.15;;;11.90;99.90;;;;;;5029665;28;20083;-55
2023/04/15 09:20:21;;;;;;;4.32;3.30;;;12.00;99.90;;;;;;5031043;28;20467;-55
2023/04/15 09:22:48;;;;;;;4.63;3.50;;;11.70;99.90;;;;;;5024155;28;20036;-55
2023/04/15 09:25:14;;;;;;;5.00;3.90;;;11.70;99.90;;;;;;5025962;28;20152;-55
2023/04/15 09:27:50;;;;;;;6.47;4.15;;;11.70;99.90;;;;;;5030871;28;20169;-54
2023/04/15 09:30:16;;;;;;;4.22;3.30;;;11.70;99.90;;;;;;5023791;28;20040;-55
2023/04/15 09:32:56;;;;;;;3.67;3.22;;;11.60;99.90;;;;;;5034870;28;20041;-55
2023/04/15 09:35:23;;;;;;;4.32;3.28;;;11.50;99.90;;;;;;5033702;28;20448;-55
2023/04/15 09:37:49;;;;;;;5.35;4.45;;;11.60;99.90;;;;;;5035030;28;20033;-55
2023/04/15 09:40:40;;;;;;;4.18;3.20;;;11.60;99.90;;;;;;5030057;28;20037;-55
2023/04/15 09:43:07;;;;;;;4.28;3.28;;;11.60;99.90;;;;;;5036535;28;20033;-55
2023/04/15 09:45:34;;;;;;;3.90;3.05;;;11.60;99.90;;;;;;5029514;28;20040;-55
2023/04/15 09:48:17;;;;;;;4.13;3.40;;;11.80;99.90;;;;;;5036682;28;20045;-55
2023/04/15 09:50:43;;;;;;;4.38;3.75;;;11.70;99.90;;;;;;5033872;28;20041;-55
2023/04/15 09:53:12;;;;;;;6.85;3.72;;;11.80;99.90;;;;;;5036251;28;20493;-55
2023/04/15 09:55:38;;;;;;;4.47;3.50;;;11.90;99.90;;;;;;5042436;28;20488;-55
2023/04/15 09:58:16;;;;;;;6.00;4.00;;;11.90;99.90;;;;;;5038267;28;20134;-56
2023/04/15 10:00:42;;;;;;;4.47;3.47;;;11.90;99.90;;;;;;5032004;28;20041;-56
2023/04/15 10:03:07;;;;;;;6.30;3.65;;;12.10;99.90;;;;;;5035548;28;20033;-56
2023/04/15 10:05:33;;;;;;;5.60;3.95;;;12.00;99.90;;;;;;5037618;28;20033;-56
2023/04/15 10:08:01;;;;;;;5.97;3.83;;;12.10;99.90;;;;;;5030579;28;20095;-57
2023/04/15 10:10:27;;;;;;;7.43;4.63;;;12.10;99.90;;;;;;5034286;28;20041;-56
2023/04/15 10:12:54;;;;;;;8.40;6.68;;;12.20;99.90;;;;;;5035141;28;20492;-56
2023/04/15 10:15:21;;;;;;;7.57;5.00;;;12.30;99.90;;;;;;5035517;28;20033;-56
2023/04/15 10:17:49;;;;;;;7.10;4.18;;;12.00;99.90;;;;;;5035748;28;20077;-56
2023/04/15 10:20:18;;;;;;;4.68;3.30;;;12.10;99.90;;;;;;5036836;28;20033;-56
2023/04/15 10:22:45;;;;;;;4.55;3.40;;;11.90;99.90;;;;;;5034814;28;20502;-56
2023/04/15 10:25:11;;;;;;;5.95;4.22;;;11.90;99.90;;;;;;5035548;28;20045;-56
2023/04/15 10:27:40;;;;;;;5.47;4.65;;;12.10;99.90;;;;;;5038019;28;20451;-57
2023/04/15 10:30:07;;;;;;;4.25;3.30;;;12.30;99.90;;;;;;5039556;28;20037;-57
2023/04/15 10:32:33;;;;;;;3.88;3.28;;;12.10;99.90;;;;;;5040673;28;20410;-57
2023/04/15 10:35:00;;;;;;;4.18;3.53;;;12.10;99.90;;;;;;5041551;28;20033;-57
2023/04/15 10:37:36;;;;;;;5.90;3.80;;;12.20;99.90;;;;;;5041182;28;20048;-57
2023/04/15 10:40:30;;;;;;;4.43;3.20;;;12.40;99.90;;;;;;5042225;28;20135;-57
2023/04/15 10:43:00;;;;;;;6.05;4.00;;;12.40;99.90;;;;;;5041974;28;20103;-58
2023/04/15 10:45:36;;;;;;;5.40;4.20;;;12.70;99.90;;;;;;5039852;28;20033;-58
2023/04/15 10:48:05;;;;;;;5.95;3.92;;;12.90;99.90;;;;;;5039412;28;20044;-57
2023/04/15 10:50:32;;;;;;;5.25;3.67;;;12.80;99.90;;;;;;5041170;28;20127;-57
2023/04/15 10:52:58;;;;;;;4.97;3.40;;;12.50;99.90;;;;;;5041159;28;20029;-57
2023/04/15 10:55:30;;;;;;;5.43;4.50;;;12.30;99.90;;;;;;5037280;28;20055;-58
2023/04/15 10:58:00;;;;;;;6.07;4.53;;;12.30;99.90;;;;;;5039826;28;20176;-58
2023/04/15 11:00:29;;;;;;;6.60;4.78;;;12.30;99.90;;;;;;5043584;28;20133;-57
2023/04/15 11:02:57;;;;;;;5.85;5.13;;;12.40;99.90;;;;;;5038887;28;20033;-57
2023/04/15 11:05:41;;;;;;;7.20;5.10;;;12.30;99.90;;;;;;5037735;28;20041;-57
2023/04/15 11:08:10;;;;;;;5.72;4.70;;;12.40;99.90;;;;;;5037419;28;20037;-58
2023/04/15 11:10:36;;;;;;;6.32;4.72;;;12.40;99.90;;;;;;5037252;28;20041;-57
2023/04/15 11:13:03;;;;;;;6.43;4.40;;;12.50;99.90;;;;;;5038060;28;20029;-57
2023/04/15 11:15:35;;;;;;;5.35;4.43;;;12.50;99.90;;;;;;5040935;28;20044;-57
2023/04/15 11:18:21;;;;;;;4.65;3.80;;;12.50;99.90;;;;;;5037482;28;20048;-60
2023/04/15 11:20:56;;;;;;;5.30;4.10;;;12.50;99.90;;;;;;5039950;28;20392;-58
2023/04/15 11:23:30;;;;;;;4.20;3.28;;;12.40;99.90;;;;;;5038474;28;20271;-57
2023/04/15 11:25:56;;;;;;;4.28;3.15;;;12.20;99.90;;;;;;5040361;28;20392;-58
2023/04/15 11:28:25;;;;;;;4.18;3.20;;;11.90;99.90;;;;;;5038121;28;20470;-58
2023/04/15 11:30:51;;;;;;;4.38;3.38;;;11.80;99.90;;;;;;5041698;28;20037;-58
2023/04/15 11:33:17;;;;;;;5.25;3.58;;;12.00;99.90;;;;;;5033587;28;20036;-57
2023/04/15 11:35:42;;;;;;;4.50;3.35;;;12.10;99.90;;;;;;5037920;28;20037;-57
2023/04/15 11:38:10;;;;;;;3.88;3.28;;;12.00;99.90;;;;;;5038884;28;20714;-57
2023/04/15 11:40:37;;;;;;;3.90;3.25;;;12.10;99.90;;;;;;5037522;28;20075;-57
2023/04/15 11:43:22;;;;;;;4.57;3.60;;;12.30;99.90;;;;;;5036479;28;20044;-58
2023/04/15 11:45:56;;;;;;;6.88;4.70;;;12.30;99.90;;;;;;5035432;28;20098;-57
2023/04/15 11:48:24;;;;;;;7.90;5.32;;;12.10;99.90;;;;;;5036492;28;20041;-57
2023/04/15 11:50:55;;;;;;;7.57;5.57;;;12.10;99.90;;;;;;5034720;28;20908;-58
2023/04/15 11:53:22;;;;;;;6.72;4.38;;;12.20;99.90;;;;;;5035027;28;20036;-57
2023/04/15 11:55:52;;;;;;;4.97;4.10;;;11.90;99.90;;;;;;5035578;28;20033;-58
2023/04/15 11:58:23;;;;;;;4.88;4.00;;;11.90;99.90;;;;;;5032697;28;20033;-57
2023/04/15 12:00:58;;;;;;;5.90;4.18;;;11.90;99.90;;;;;;5035235;28;20083;-58
2023/04/15 12:03:36;;;;;;;4.45;3.58;;;12.10;99.90;;;;;;5031810;28;20510;-57
2023/04/15 12:06:13;;;;;;;5.53;4.35;;;11.90;99.90;;;;;;5033982;28;20128;-57
2023/04/15 12:08:59;;;;;;;5.88;3.97;;;11.90;99.90;;;;;;5033585;28;20044;-57
2023/04/15 12:11:36;;;;;;;5.15;3.97;;;11.70;99.90;;;;;;5034518;28;20075;-57
2023/04/15 12:14:05;;;;;;;7.45;4.03;;;11.80;99.90;;;;;;5036429;28;20049;-58
2023/04/15 12:16:37;;;;;;;6.55;4.18;;;11.70;99.90;;;;;;5033630;28;20051;-58
2023/04/15 12:19:10;;;;;;;5.40;4.40;;;11.80;99.90;;;;;;5033448;28;20044;-58
2023/04/15 12:21:39;;;;;;;5.93;4.10;;;12.00;99.90;;;;;;5033577;28;20678;-58
2023/04/15 12:24:07;;;;;;;4.65;3.45;;;12.20;99.90;;;;;;5033288;28;20037;-58
2023/04/15 12:26:34;;;;;;;5.70;3.80;;;12.20;99.90;;;;;;5031959;28;20513;-58
2023/04/15 12:29:01;;;;;;;5.13;3.05;;;12.10;99.90;;;;;;5033439;28;20162;-57
2023/04/15 12:31:27;;;;;;;5.13;3.92;;;12.00;99.90;;;;;;5032654;28;20457;-57
2023/04/15 12:33:56;;;;;;;5.15;3.33;;;11.90;99.90;;;;;;5038914;28;20044;-57
2023/04/15 12:36:23;;;;;;;4.55;3.38;;;11.90;99.90;;;;;;5033997;28;20052;-57
2023/04/15 12:38:49;;;;;;;5.00;3.67;;;11.70;99.90;;;;;;5033311;28;20603;-58
2023/04/15 12:41:15;;;;;;;4.28;3.35;;;11.90;99.90;;;;;;5031748;28;20036;-56
2023/04/15 12:43:41;;;;;;;3.75;2.95;;;11.90;99.90;;;;;;5050043;28;20045;-57